ELY1202 LLER-LLBG
Flight info
| Callsign | ELY1202 |
|---|---|
| Flight time | 0h 42m |
| Altitude | 16000 |
| Route | NURIT2H J10 AMMIT |
| Aircraft | B739/M-VGDW/C |
Departure
| Time | 2026-04-25 18:01 |
|---|---|
| Airport | Ramon International Airport (LLER) |
Arrival
| Time | 2026-04-25 18:43 |
|---|---|
| Airport | Ben Gurion International Airport (LLBG) |
| Time | Latitude | Longitude | Altitude | Speed | Heading |
|---|---|---|---|---|---|
| 2026-04-25 17:39 | 29.72359 | 35.00915 | 297 ft | 0 kts | 103° |
| 2026-04-25 17:55 | 29.72359 | 35.00914 | 297 ft | 1 kts | 103° |
| 2026-04-25 17:55 | 29.72362 | 35.00898 | 297 ft | 3 kts | 96° |
| 2026-04-25 17:55 | 29.72361 | 35.00876 | 297 ft | 3 kts | 78° |
| 2026-04-25 17:56 | 29.72354 | 35.00854 | 297 ft | 3 kts | 59° |
| 2026-04-25 17:56 | 29.72356 | 35.00858 | 297 ft | 0 kts | 54° |
| 2026-04-25 17:56 | 29.72351 | 35.00850 | 297 ft | 2 kts | 46° |
| 2026-04-25 17:56 | 29.72355 | 35.00854 | 297 ft | 0 kts | 43° |
| 2026-04-25 17:57 | 29.72348 | 35.00847 | 297 ft | 2 kts | 39° |
| 2026-04-25 17:57 | 29.72361 | 35.00855 | 297 ft | 2 kts | 20° |
| 2026-04-25 17:57 | 29.72374 | 35.00860 | 297 ft | 2 kts | 19° |
| 2026-04-25 17:57 | 29.72378 | 35.00862 | 297 ft | 2 kts | 18° |
| 2026-04-25 17:58 | 29.72518 | 35.00894 | 297 ft | 19 kts | 13° |
| 2026-04-25 17:58 | 29.72652 | 35.00931 | 297 ft | 24 kts | 13° |
| 2026-04-25 17:58 | 29.72848 | 35.00986 | 297 ft | 29 kts | 13° |
| 2026-04-25 17:58 | 29.73008 | 35.01023 | 297 ft | 28 kts | 13° |
| 2026-04-25 17:59 | 29.73194 | 35.01075 | 297 ft | 30 kts | 13° |
| 2026-04-25 17:59 | 29.73367 | 35.01124 | 297 ft | 19 kts | 26° |
| 2026-04-25 17:59 | 29.73375 | 35.01283 | 297 ft | 23 kts | 105° |
| 2026-04-25 17:59 | 29.73372 | 35.01459 | 297 ft | 22 kts | 149° |
| 2026-04-25 18:00 | 29.73283 | 35.01490 | 297 ft | 18 kts | 164° |
| 2026-04-25 18:00 | 29.73133 | 35.01527 | 297 ft | 16 kts | 193° |
| 2026-04-25 18:00 | 29.72895 | 35.01462 | 297 ft | 65 kts | 193° |
| 2026-04-25 18:00 | 29.72247 | 35.01280 | 297 ft | 124 kts | 193° |
| 2026-04-25 18:01 | 29.71305 | 35.01018 | 566 ft | 149 kts | 193° |
| 2026-04-25 18:01 | 29.70277 | 35.00732 | 1216 ft | 151 kts | 193° |
| 2026-04-25 18:01 | 29.69249 | 35.00470 | 1921 ft | 153 kts | 192° |
| 2026-04-25 18:01 | 29.68240 | 35.00128 | 2645 ft | 152 kts | 208° |
| 2026-04-25 18:02 | 29.67744 | 34.99598 | 3151 ft | 144 kts | 237° |
| 2026-04-25 18:02 | 29.67548 | 34.98900 | 3612 ft | 146 kts | 264° |
| 2026-04-25 18:02 | 29.67846 | 34.97766 | 4084 ft | 163 kts | 304° |
| 2026-04-25 18:02 | 29.68847 | 34.97003 | 4487 ft | 188 kts | 340° |
| 2026-04-25 18:03 | 29.69287 | 34.96922 | 4672 ft | 194 kts | 352° |
| 2026-04-25 18:03 | 29.70153 | 34.97064 | 5139 ft | 200 kts | 14° |
| 2026-04-25 18:03 | 29.71321 | 34.97962 | 5966 ft | 207 kts | 43° |
| 2026-04-25 18:03 | 29.72271 | 34.99199 | 6860 ft | 205 kts | 41° |
| 2026-04-25 18:04 | 29.73358 | 35.00291 | 7670 ft | 210 kts | 36° |
| 2026-04-25 18:04 | 29.74521 | 35.01336 | 8561 ft | 213 kts | 31° |
| 2026-04-25 18:04 | 29.75247 | 35.01788 | 9064 ft | 213 kts | 19° |
| 2026-04-25 18:04 | 29.76650 | 35.02207 | 9821 ft | 223 kts | 7° |
| 2026-04-25 18:05 | 29.78278 | 35.02452 | 10404 ft | 245 kts | 4° |
| 2026-04-25 18:05 | 29.80034 | 35.02650 | 11147 ft | 264 kts | 3° |
| 2026-04-25 18:05 | 29.81927 | 35.02853 | 11849 ft | 283 kts | 4° |
| 2026-04-25 18:05 | 29.83955 | 35.03105 | 12552 ft | 302 kts | 6° |
| 2026-04-25 18:06 | 29.86099 | 35.03437 | 13257 ft | 322 kts | 6° |
| 2026-04-25 18:06 | 29.88360 | 35.03787 | 13827 ft | 343 kts | 6° |
| 2026-04-25 18:06 | 29.90835 | 35.04161 | 14392 ft | 366 kts | 6° |
| 2026-04-25 18:06 | 29.93054 | 35.04492 | 14860 ft | 383 kts | 5° |
| 2026-04-25 18:07 | 29.95740 | 35.04889 | 15523 ft | 396 kts | 5° |
| 2026-04-25 18:07 | 29.98475 | 35.05297 | 15904 ft | 398 kts | 5° |
| 2026-04-25 18:07 | 30.01225 | 35.05709 | 15997 ft | 399 kts | 5° |
| 2026-04-25 18:07 | 30.03948 | 35.06121 | 16021 ft | 399 kts | 5° |
| 2026-04-25 18:08 | 30.06702 | 35.06543 | 16027 ft | 399 kts | 5° |
| 2026-04-25 18:08 | 30.09460 | 35.07016 | 16030 ft | 400 kts | 7° |
| 2026-04-25 18:08 | 30.12212 | 35.07620 | 16030 ft | 400 kts | 9° |
| 2026-04-25 18:08 | 30.14950 | 35.08225 | 16030 ft | 400 kts | 8° |
| 2026-04-25 18:09 | 30.17686 | 35.08800 | 16031 ft | 400 kts | 8° |
| 2026-04-25 18:09 | 30.20420 | 35.09368 | 16031 ft | 400 kts | 8° |
| 2026-04-25 18:09 | 30.23167 | 35.09939 | 16031 ft | 400 kts | 8° |
| 2026-04-25 18:09 | 30.24090 | 35.10126 | 16032 ft | 399 kts | 7° |
| 2026-04-25 18:10 | 30.28644 | 35.10961 | 16033 ft | 400 kts | 7° |
| 2026-04-25 18:10 | 30.31414 | 35.11478 | 16035 ft | 410 kts | 7° |
| 2026-04-25 18:10 | 30.34291 | 35.12019 | 16035 ft | 424 kts | 7° |
| 2026-04-25 18:10 | 30.37223 | 35.12583 | 16034 ft | 431 kts | 7° |
| 2026-04-25 18:11 | 30.40189 | 35.13155 | 16035 ft | 434 kts | 7° |
| 2026-04-25 18:11 | 30.43168 | 35.13726 | 16034 ft | 433 kts | 7° |
| 2026-04-25 18:11 | 30.46150 | 35.14308 | 16035 ft | 434 kts | 7° |
| 2026-04-25 18:11 | 30.49085 | 35.14874 | 16036 ft | 433 kts | 7° |
| 2026-04-25 18:12 | 30.52051 | 35.15442 | 16037 ft | 433 kts | 7° |
| 2026-04-25 18:12 | 30.55007 | 35.16136 | 16039 ft | 434 kts | 12° |
| 2026-04-25 18:12 | 30.57911 | 35.17149 | 16044 ft | 436 kts | 18° |
| 2026-04-25 18:12 | 30.60732 | 35.18434 | 16048 ft | 436 kts | 21° |
| 2026-04-25 18:13 | 30.63517 | 35.19852 | 16052 ft | 436 kts | 22° |
| 2026-04-25 18:13 | 30.66294 | 35.21252 | 16055 ft | 436 kts | 22° |
| 2026-04-25 18:13 | 30.69088 | 35.22638 | 16057 ft | 436 kts | 22° |
| 2026-04-25 18:14 | 30.73762 | 35.24947 | 16059 ft | 436 kts | 21° |
| 2026-04-25 18:14 | 30.76556 | 35.26326 | 16061 ft | 436 kts | 21° |
| 2026-04-25 18:14 | 30.79348 | 35.27705 | 16062 ft | 436 kts | 21° |
| 2026-04-25 18:14 | 30.82103 | 35.29065 | 16063 ft | 436 kts | 21° |
| 2026-04-25 18:15 | 30.84889 | 35.30442 | 16064 ft | 436 kts | 21° |
| 2026-04-25 18:15 | 30.87683 | 35.31823 | 16067 ft | 436 kts | 22° |
| 2026-04-25 18:15 | 30.90472 | 35.33200 | 16067 ft | 436 kts | 21° |
| 2026-04-25 18:15 | 30.93321 | 35.34398 | 16068 ft | 435 kts | 15° |
| 2026-04-25 18:16 | 30.96257 | 35.35253 | 16069 ft | 434 kts | 9° |
| 2026-04-25 18:16 | 30.99231 | 35.35741 | 16071 ft | 433 kts | 3° |
| 2026-04-25 18:16 | 31.05233 | 35.36247 | 16073 ft | 433 kts | 3° |
| 2026-04-25 18:17 | 31.08231 | 35.36565 | 16073 ft | 432 kts | 3° |
| 2026-04-25 18:17 | 31.11223 | 35.36871 | 16074 ft | 432 kts | 3° |
| 2026-04-25 18:17 | 31.14209 | 35.37179 | 16075 ft | 431 kts | 3° |
| 2026-04-25 18:17 | 31.17128 | 35.37482 | 16072 ft | 409 kts | 3° |
| 2026-04-25 18:18 | 31.19889 | 35.37772 | 16070 ft | 388 kts | 3° |
| 2026-04-25 18:18 | 31.22554 | 35.38052 | 16074 ft | 386 kts | 3° |
| 2026-04-25 18:18 | 31.25256 | 35.38336 | 16078 ft | 393 kts | 3° |
| 2026-04-25 18:18 | 31.27990 | 35.38624 | 15972 ft | 396 kts | 3° |
| 2026-04-25 18:19 | 31.30686 | 35.38907 | 15445 ft | 393 kts | 3° |
| 2026-04-25 18:19 | 31.33385 | 35.39203 | 14734 ft | 392 kts | 4° |
| 2026-04-25 18:19 | 31.36097 | 35.39668 | 14008 ft | 389 kts | 8° |
| 2026-04-25 18:19 | 31.38740 | 35.40275 | 13296 ft | 386 kts | 10° |
| 2026-04-25 18:20 | 31.41359 | 35.40924 | 12586 ft | 382 kts | 10° |
| 2026-04-25 18:20 | 31.43953 | 35.41535 | 11881 ft | 378 kts | 10° |
| 2026-04-25 18:20 | 31.46522 | 35.42123 | 11177 ft | 374 kts | 9° |
| 2026-04-25 18:20 | 31.49068 | 35.42698 | 10576 ft | 368 kts | 9° |
| 2026-04-25 18:21 | 31.51550 | 35.43254 | 10284 ft | 358 kts | 9° |
| 2026-04-25 18:21 | 31.53953 | 35.43792 | 10092 ft | 346 kts | 9° |
| 2026-04-25 18:21 | 31.56253 | 35.44306 | 10064 ft | 326 kts | 9° |
| 2026-04-25 18:21 | 31.58407 | 35.44787 | 10061 ft | 306 kts | 9° |
| 2026-04-25 18:22 | 31.60458 | 35.45245 | 9832 ft | 296 kts | 9° |
| 2026-04-25 18:22 | 31.61793 | 35.45544 | 9503 ft | 296 kts | 8° |
| 2026-04-25 18:22 | 31.64493 | 35.46174 | 8884 ft | 294 kts | 9° |
| 2026-04-25 18:22 | 31.66459 | 35.46642 | 8460 ft | 291 kts | 9° |
| 2026-04-25 18:23 | 31.68429 | 35.47109 | 8182 ft | 287 kts | 9° |
| 2026-04-25 18:23 | 31.70387 | 35.47575 | 8100 ft | 278 kts | 9° |
| 2026-04-25 18:23 | 31.72284 | 35.47973 | 8046 ft | 277 kts | 2° |
| 2026-04-25 18:23 | 31.74182 | 35.47675 | 8048 ft | 278 kts | 338° |
| 2026-04-25 18:24 | 31.75845 | 35.46474 | 8081 ft | 294 kts | 318° |
| 2026-04-25 18:24 | 31.77378 | 35.44750 | 8094 ft | 313 kts | 314° |
| 2026-04-25 18:24 | 31.78961 | 35.42931 | 8086 ft | 322 kts | 314° |
| 2026-04-25 18:24 | 31.80569 | 35.41068 | 7893 ft | 326 kts | 313° |
| 2026-04-25 18:25 | 31.82105 | 35.39137 | 7727 ft | 324 kts | 311° |
| 2026-04-25 18:25 | 31.83610 | 35.37205 | 7676 ft | 323 kts | 311° |
| 2026-04-25 18:25 | 31.85144 | 35.35241 | 7625 ft | 324 kts | 311° |
| 2026-04-25 18:25 | 31.86668 | 35.33290 | 7574 ft | 322 kts | 311° |
| 2026-04-25 18:26 | 31.88187 | 35.31350 | 7525 ft | 322 kts | 311° |
| 2026-04-25 18:26 | 31.89710 | 35.29399 | 7445 ft | 329 kts | 311° |
| 2026-04-25 18:26 | 31.91158 | 35.27321 | 7322 ft | 333 kts | 306° |
| 2026-04-25 18:26 | 31.92501 | 35.25096 | 7199 ft | 335 kts | 304° |
| 2026-04-25 18:27 | 31.93865 | 35.22842 | 7068 ft | 333 kts | 304° |
| 2026-04-25 18:27 | 31.95180 | 35.20651 | 6947 ft | 331 kts | 304° |
| 2026-04-25 18:27 | 31.96503 | 35.18442 | 6824 ft | 331 kts | 304° |
| 2026-04-25 18:27 | 31.97843 | 35.16206 | 6698 ft | 330 kts | 304° |
| 2026-04-25 18:28 | 31.99151 | 35.14027 | 6573 ft | 330 kts | 304° |
| 2026-04-25 18:28 | 32.00003 | 35.12601 | 6488 ft | 331 kts | 304° |
| 2026-04-25 18:28 | 32.01064 | 35.10808 | 6299 ft | 329 kts | 304° |
| 2026-04-25 18:29 | 32.03586 | 35.06507 | 5422 ft | 297 kts | 304° |
| 2026-04-25 18:29 | 32.04698 | 35.04612 | 5205 ft | 267 kts | 304° |
| 2026-04-25 18:30 | 32.07804 | 34.99310 | 5009 ft | 265 kts | 304° |
| 2026-04-25 18:30 | 32.08832 | 34.97553 | 4995 ft | 251 kts | 304° |
| 2026-04-25 18:30 | 32.09787 | 34.95923 | 4984 ft | 234 kts | 304° |
| 2026-04-25 18:30 | 32.10682 | 34.94390 | 4971 ft | 218 kts | 304° |
| 2026-04-25 18:31 | 32.11508 | 34.92975 | 5011 ft | 200 kts | 304° |
| 2026-04-25 18:31 | 32.12272 | 34.91668 | 4949 ft | 187 kts | 304° |
| 2026-04-25 18:31 | 32.13011 | 34.90401 | 4601 ft | 189 kts | 304° |
| 2026-04-25 18:31 | 32.13752 | 34.89123 | 4236 ft | 190 kts | 304° |
| 2026-04-25 18:32 | 32.14500 | 34.87832 | 3862 ft | 191 kts | 304° |
| 2026-04-25 18:32 | 32.15121 | 34.86756 | 3573 ft | 192 kts | 304° |
| 2026-04-25 18:32 | 32.15876 | 34.85442 | 3206 ft | 188 kts | 304° |
| 2026-04-25 18:32 | 32.16579 | 34.84195 | 3022 ft | 178 kts | 302° |
| 2026-04-25 18:33 | 32.17190 | 34.82956 | 2966 ft | 171 kts | 301° |
| 2026-04-25 18:33 | 32.17759 | 34.81785 | 2948 ft | 163 kts | 301° |
| 2026-04-25 18:33 | 32.18315 | 34.80640 | 2947 ft | 160 kts | 301° |
| 2026-04-25 18:33 | 32.18863 | 34.79511 | 2956 ft | 157 kts | 301° |
| 2026-04-25 18:34 | 32.19402 | 34.78400 | 2969 ft | 156 kts | 301° |
| 2026-04-25 18:34 | 32.19933 | 34.77281 | 2981 ft | 156 kts | 299° |
| 2026-04-25 18:34 | 32.20439 | 34.76144 | 2990 ft | 157 kts | 298° |
| 2026-04-25 18:34 | 32.20946 | 34.75007 | 2995 ft | 157 kts | 298° |
| 2026-04-25 18:35 | 32.21451 | 34.73869 | 2996 ft | 157 kts | 298° |
| 2026-04-25 18:35 | 32.21932 | 34.72707 | 2996 ft | 157 kts | 296° |
| 2026-04-25 18:35 | 32.22404 | 34.71547 | 2996 ft | 157 kts | 296° |
| 2026-04-25 18:35 | 32.22864 | 34.70378 | 2993 ft | 157 kts | 292° |
| 2026-04-25 18:36 | 32.22965 | 34.69096 | 2964 ft | 164 kts | 256° |
| 2026-04-25 18:36 | 32.22275 | 34.68025 | 2990 ft | 170 kts | 215° |
| 2026-04-25 18:36 | 32.21189 | 34.67417 | 3063 ft | 176 kts | 205° |
| 2026-04-25 18:36 | 32.20057 | 34.66830 | 3066 ft | 182 kts | 205° |
| 2026-04-25 18:37 | 32.18849 | 34.66284 | 3049 ft | 190 kts | 193° |
| 2026-04-25 18:37 | 32.17539 | 34.66427 | 3017 ft | 194 kts | 159° |
| 2026-04-25 18:37 | 32.16320 | 34.67127 | 3051 ft | 196 kts | 155° |
| 2026-04-25 18:37 | 32.15083 | 34.67825 | 2955 ft | 198 kts | 154° |
| 2026-04-25 18:38 | 32.13850 | 34.68533 | 2711 ft | 197 kts | 154° |
| 2026-04-25 18:38 | 32.12634 | 34.69227 | 2510 ft | 189 kts | 154° |
| 2026-04-25 18:38 | 32.11464 | 34.69896 | 2468 ft | 185 kts | 154° |
| 2026-04-25 18:38 | 32.10316 | 34.70555 | 2468 ft | 181 kts | 153° |
| 2026-04-25 18:39 | 32.09311 | 34.71434 | 2458 ft | 181 kts | 131° |
| 2026-04-25 18:39 | 32.08624 | 34.72666 | 2493 ft | 181 kts | 120° |
| 2026-04-25 18:39 | 32.08002 | 34.73943 | 2495 ft | 177 kts | 120° |
| 2026-04-25 18:39 | 32.07382 | 34.75174 | 2360 ft | 175 kts | 120° |
| 2026-04-25 18:40 | 32.06753 | 34.76400 | 2136 ft | 171 kts | 120° |
| 2026-04-25 18:40 | 32.06159 | 34.77549 | 1932 ft | 157 kts | 120° |
| 2026-04-25 18:40 | 32.05610 | 34.78610 | 1722 ft | 149 kts | 120° |
| 2026-04-25 18:40 | 32.05070 | 34.79651 | 1521 ft | 148 kts | 120° |
| 2026-04-25 18:41 | 32.04552 | 34.80650 | 1312 ft | 137 kts | 120° |
| 2026-04-25 18:41 | 32.04057 | 34.81603 | 1143 ft | 137 kts | 120° |
| 2026-04-25 18:41 | 32.03550 | 34.82569 | 974 ft | 140 kts | 121° |
| 2026-04-25 18:41 | 32.03033 | 34.83551 | 753 ft | 140 kts | 121° |
| 2026-04-25 18:42 | 32.02540 | 34.84521 | 543 ft | 138 kts | 120° |
| 2026-04-25 18:42 | 32.02375 | 34.84850 | 481 ft | 139 kts | 121° |
| 2026-04-25 18:42 | 32.01544 | 34.86441 | 229 ft | 136 kts | 121° |
| 2026-04-25 18:42 | 32.01061 | 34.87373 | 148 ft | 125 kts | 121° |
| 2026-04-25 18:43 | 32.00698 | 34.88072 | 144 ft | 69 kts | 121° |
| 2026-04-25 18:43 | 32.00515 | 34.88423 | 144 ft | 40 kts | 123° |
| 2026-04-25 18:43 | 32.00339 | 34.88623 | 144 ft | 28 kts | 150° |
| 2026-04-25 18:43 | 32.00190 | 34.88700 | 144 ft | 22 kts | 163° |
| 2026-04-25 18:44 | 32.00109 | 34.88625 | 144 ft | 20 kts | 308° |
| 2026-04-25 18:44 | 32.00163 | 34.88513 | 144 ft | 15 kts | 300° |
| 2026-04-25 18:44 | 32.00217 | 34.88411 | 144 ft | 14 kts | 302° |
| 2026-04-25 18:44 | 32.00269 | 34.88311 | 144 ft | 17 kts | 302° |
| 2026-04-25 18:45 | 32.00334 | 34.88187 | 144 ft | 21 kts | 301° |
| 2026-04-25 18:45 | 32.00409 | 34.88042 | 144 ft | 21 kts | 301° |
| 2026-04-25 18:45 | 32.00481 | 34.87903 | 144 ft | 17 kts | 301° |
| 2026-04-25 18:45 | 32.00435 | 34.87809 | 144 ft | 19 kts | 211° |
| 2026-04-25 18:46 | 32.00335 | 34.87737 | 144 ft | 15 kts | 211° |
| 2026-04-25 18:46 | 32.00250 | 34.87677 | 144 ft | 10 kts | 211° |
| 2026-04-25 18:46 | 32.00195 | 34.87637 | 144 ft | 9 kts | 212° |
| 2026-04-25 18:46 | 32.00169 | 34.87577 | 144 ft | 9 kts | 267° |
| 2026-04-25 18:47 | 32.00167 | 34.87525 | 144 ft | 4 kts | 268° |
| 2026-04-25 18:47 | 32.00167 | 34.87512 | 144 ft | 0 kts | 268° |